createdAt,value
2022-11-23T00:01:26.293Z,100.00
2022-11-23T00:03:55.238Z,100.00
2022-11-23T00:06:23.523Z,100.00
2022-11-23T00:08:51.015Z,100.00
2022-11-23T00:11:19.754Z,100.00
2022-11-23T00:13:46.461Z,100.00
2022-11-23T00:16:21.623Z,100.00
2022-11-23T00:18:48.629Z,100.00
2022-11-23T00:21:16.590Z,100.00
2022-11-23T00:23:43.953Z,100.00
2022-11-23T00:26:11.636Z,100.00
2022-11-23T00:28:40.646Z,100.00
2022-11-23T00:31:08.351Z,100.00
2022-11-23T00:33:35.105Z,100.00
2022-11-23T00:36:04.069Z,100.00
2022-11-23T00:38:31.153Z,100.00
2022-11-23T00:40:58.811Z,100.00
2022-11-23T00:43:25.328Z,100.00
2022-11-23T00:46:03.066Z,100.00
2022-11-23T00:48:30.107Z,100.00
2022-11-23T00:50:56.748Z,100.00
2022-11-23T00:53:23.563Z,100.00
2022-11-23T00:55:54.287Z,100.00
2022-11-23T00:58:21.507Z,100.00
2022-11-23T01:00:48.578Z,100.00
2022-11-23T01:03:15.628Z,100.00
2022-11-23T01:05:42.684Z,100.00
2022-11-23T01:08:09.181Z,100.00
2022-11-23T01:10:35.756Z,100.00
2022-11-23T01:13:02.367Z,100.00
2022-11-23T01:15:28.910Z,100.00
2022-11-23T01:17:55.479Z,100.00
2022-11-23T01:20:21.986Z,100.00
2022-11-23T01:22:48.522Z,100.00
2022-11-23T01:25:15.113Z,100.00
2022-11-23T01:27:41.795Z,100.00
2022-11-23T01:30:08.975Z,100.00
2022-11-23T01:32:35.549Z,100.00
2022-11-23T01:35:02.083Z,100.00
2022-11-23T01:37:28.650Z,100.00
2022-11-23T01:39:55.201Z,100.00
2022-11-23T01:42:21.737Z,100.00
2022-11-23T01:44:48.356Z,100.00
2022-11-23T01:47:14.902Z,100.00
2022-11-23T01:49:46.494Z,100.00
2022-11-23T01:52:20.258Z,100.00
2022-11-23T01:54:50.451Z,100.00
2022-11-23T01:57:25.075Z,100.00
2022-11-23T01:59:53.240Z,100.00
2022-11-23T02:02:19.894Z,100.00
2022-11-23T02:04:49.258Z,100.00
2022-11-23T02:07:18.822Z,100.00
2022-11-23T02:09:46.848Z,100.00
2022-11-23T02:12:14.767Z,100.00
2022-11-23T02:14:42.278Z,100.00
2022-11-23T02:17:09.277Z,100.00
2022-11-23T02:19:35.676Z,100.00
2022-11-23T02:22:02.751Z,100.00
2022-11-23T02:24:33.617Z,100.00
2022-11-23T02:27:02.053Z,100.00
2022-11-23T02:29:29.848Z,100.00
2022-11-23T02:31:56.805Z,100.00
2022-11-23T02:34:23.368Z,100.00
2022-11-23T02:36:52.858Z,100.00
2022-11-23T02:39:27.539Z,100.00
2022-11-23T02:41:55.946Z,100.00
2022-11-23T02:44:50.662Z,100.00
2022-11-23T02:47:17.449Z,100.00
2022-11-23T02:49:47.698Z,100.00
2022-11-23T02:52:14.559Z,100.00
2022-11-23T02:54:41.161Z,100.00
2022-11-23T02:57:08.498Z,100.00
2022-11-23T02:59:35.360Z,100.00
2022-11-23T03:02:03.431Z,100.00
2022-11-23T03:04:30.157Z,100.00
2022-11-23T03:06:57.167Z,100.00
2022-11-23T03:09:26.077Z,100.00
2022-11-23T03:11:53.533Z,100.00
2022-11-23T03:14:20.850Z,100.00
2022-11-23T03:16:47.446Z,100.00
2022-11-23T03:19:14.071Z,100.00
2022-11-23T03:21:40.621Z,100.00
2022-11-23T03:24:07.154Z,100.00
2022-11-23T03:26:33.746Z,100.00
2022-11-23T03:29:00.251Z,100.00
2022-11-23T03:31:27.052Z,100.00
2022-11-23T03:33:53.592Z,100.00
2022-11-23T03:36:20.171Z,100.00
2022-11-23T03:38:46.737Z,100.00
2022-11-23T03:41:13.351Z,100.00
2022-11-23T03:43:39.915Z,100.00
2022-11-23T03:46:06.507Z,100.00
2022-11-23T03:48:33.036Z,100.00
2022-11-23T03:50:59.547Z,100.00
2022-11-23T03:53:26.463Z,100.00
2022-11-23T03:55:55.484Z,100.00
2022-11-23T03:58:22.082Z,100.00
2022-11-23T04:00:48.621Z,100.00
2022-11-23T04:03:15.358Z,100.00
2022-11-23T04:05:41.862Z,100.00
2022-11-23T04:08:09.552Z,100.00
2022-11-23T04:10:36.064Z,100.00
2022-11-23T04:13:02.876Z,100.00
2022-11-23T04:15:29.475Z,100.00
2022-11-23T04:17:56.154Z,100.00
2022-11-23T04:20:22.687Z,100.00
2022-11-23T04:22:49.274Z,100.00
2022-11-23T04:25:15.807Z,100.00
2022-11-23T04:27:42.441Z,100.00
2022-11-23T04:30:09.873Z,100.00
2022-11-23T04:32:36.418Z,100.00
2022-11-23T04:35:03.157Z,100.00
2022-11-23T04:37:29.777Z,100.00
2022-11-23T04:39:56.317Z,100.00
2022-11-23T04:42:22.926Z,100.00
2022-11-23T04:44:49.491Z,100.00
2022-11-23T04:47:16.124Z,100.00
2022-11-23T04:49:42.649Z,100.00
2022-11-23T04:52:09.167Z,100.00
2022-11-23T04:54:35.723Z,100.00
2022-11-23T04:57:02.254Z,100.00
2022-11-23T04:59:29.041Z,100.00
2022-11-23T05:01:55.642Z,100.00
2022-11-23T05:04:22.181Z,100.00
2022-11-23T05:06:48.804Z,100.00
2022-11-23T05:09:15.705Z,100.00
2022-11-23T05:11:42.339Z,100.00
2022-11-23T05:14:08.970Z,100.00
2022-11-23T05:16:35.644Z,100.00
2022-11-23T05:19:02.527Z,100.00
2022-11-23T05:21:29.162Z,100.00
2022-11-23T05:23:55.782Z,100.00
2022-11-23T05:26:22.398Z,100.00
2022-11-23T05:28:49.145Z,100.00
2022-11-23T05:31:15.718Z,100.00
2022-11-23T05:33:42.254Z,100.00
2022-11-23T05:36:09.359Z,100.00
2022-11-23T05:38:35.911Z,100.00
2022-11-23T05:41:02.438Z,100.00
2022-11-23T05:43:29.008Z,100.00
2022-11-23T05:45:59.052Z,100.00
2022-11-23T05:48:25.701Z,100.00
2022-11-23T05:50:52.388Z,100.00
2022-11-23T05:53:19.308Z,100.00
2022-11-23T05:55:46.238Z,100.00
2022-11-23T05:58:13.035Z,100.00
2022-11-23T06:00:39.555Z,100.00
2022-11-23T06:03:06.062Z,100.00
2022-11-23T06:05:32.988Z,100.00
2022-11-23T06:07:59.483Z,100.00
2022-11-23T06:10:26.020Z,100.00
2022-11-23T06:12:52.846Z,100.00
2022-11-23T06:15:19.555Z,100.00
2022-11-23T06:17:46.081Z,100.00
2022-11-23T06:20:12.769Z,100.00
2022-11-23T06:22:39.573Z,100.00
2022-11-23T06:25:06.596Z,100.00
2022-11-23T06:27:33.043Z,100.00
2022-11-23T06:29:59.527Z,100.00
2022-11-23T06:32:26.046Z,100.00
2022-11-23T06:34:53.885Z,100.00
2022-11-23T06:37:23.605Z,100.00
2022-11-23T06:39:50.083Z,100.00
2022-11-23T06:42:37.761Z,100.00
2022-11-23T06:45:03.743Z,100.00
2022-11-23T06:47:30.277Z,100.00
2022-11-23T06:49:56.747Z,100.00
2022-11-23T06:52:23.277Z,100.00
2022-11-23T06:54:49.768Z,100.00
2022-11-23T06:57:16.344Z,100.00
2022-11-23T06:59:45.048Z,100.00
2022-11-23T07:02:12.517Z,100.00
2022-11-23T07:04:39.109Z,100.00
2022-11-23T07:07:07.799Z,100.00
2022-11-23T07:09:35.054Z,100.00
2022-11-23T07:12:01.791Z,100.00
2022-11-23T07:14:28.355Z,100.00
2022-11-23T07:16:54.921Z,100.00
2022-11-23T07:19:21.394Z,100.00
2022-11-23T07:21:47.955Z,100.00
2022-11-23T07:24:14.477Z,100.00
2022-11-23T07:26:41.041Z,100.00
2022-11-23T07:29:07.598Z,100.00
2022-11-23T07:31:34.080Z,100.00
2022-11-23T07:34:00.549Z,100.00
2022-11-23T07:36:27.053Z,100.00
2022-11-23T07:38:53.582Z,100.00
2022-11-23T07:41:20.100Z,100.00
2022-11-23T07:43:46.663Z,100.00
2022-11-23T07:46:13.283Z,100.00
2022-11-23T07:48:39.847Z,100.00
2022-11-23T07:51:06.370Z,100.00
2022-11-23T07:53:32.881Z,100.00
2022-11-23T07:55:59.460Z,100.00
2022-11-23T07:58:26.237Z,100.00
2022-11-23T08:00:52.815Z,100.00
2022-11-23T08:03:27.730Z,100.00
2022-11-23T08:05:54.957Z,100.00
2022-11-23T08:08:21.510Z,100.00
2022-11-23T08:10:53.005Z,100.00
2022-11-23T08:13:20.410Z,100.00
2022-11-23T08:15:53.251Z,100.00
2022-11-23T08:18:20.910Z,100.00
2022-11-23T08:20:47.478Z,100.00
2022-11-23T08:23:14.037Z,100.00
2022-11-23T08:25:40.586Z,100.00
2022-11-23T08:28:07.161Z,100.00
2022-11-23T08:30:34.431Z,100.00
2022-11-23T08:33:08.065Z,100.00
2022-11-23T08:35:36.529Z,100.00
2022-11-23T08:38:04.527Z,100.00
2022-11-23T08:40:31.156Z,100.00
2022-11-23T08:42:57.706Z,100.00
2022-11-23T08:45:24.241Z,100.00
2022-11-23T08:47:51.192Z,100.00
2022-11-23T08:50:18.032Z,100.00
2022-11-23T08:52:44.576Z,100.00
2022-11-23T08:55:11.652Z,100.00
2022-11-23T08:57:38.430Z,100.00
2022-11-23T09:00:06.087Z,100.00
2022-11-23T09:02:33.032Z,100.00
2022-11-23T09:05:00.696Z,100.00
2022-11-23T09:07:27.313Z,100.00
2022-11-23T09:09:53.917Z,100.00
2022-11-23T09:12:20.408Z,100.00
2022-11-23T09:14:46.959Z,100.00
2022-11-23T09:17:13.481Z,100.00
2022-11-23T09:19:39.930Z,100.00
2022-11-23T09:22:06.450Z,100.00
2022-11-23T09:24:34.410Z,100.00
2022-11-23T09:27:01.014Z,100.00
2022-11-23T09:29:28.170Z,100.00
2022-11-23T09:31:54.753Z,100.00
2022-11-23T09:34:21.269Z,100.00
2022-11-23T09:36:48.100Z,100.00
2022-11-23T09:39:14.820Z,100.00
2022-11-23T09:41:41.255Z,100.00
2022-11-23T09:44:52.234Z,100.00
2022-11-23T09:47:51.583Z,100.00
2022-11-23T09:50:28.337Z,100.00
2022-11-23T09:52:54.909Z,100.00
2022-11-23T09:55:41.789Z,100.00
2022-11-23T09:58:14.086Z,100.00
2022-11-23T10:00:48.814Z,100.00
2022-11-23T10:03:17.586Z,100.00
2022-11-23T10:05:53.948Z,100.00
2022-11-23T10:08:51.366Z,100.00
2022-11-23T10:11:23.657Z,100.00
2022-11-23T10:14:28.398Z,100.00
2022-11-23T10:17:34.000Z,100.00
2022-11-23T10:20:25.243Z,100.00
2022-11-23T10:22:58.700Z,100.00
2022-11-23T10:25:29.186Z,100.00
2022-11-23T10:28:03.039Z,100.00
2022-11-23T10:30:29.572Z,100.00
2022-11-23T10:33:11.014Z,100.00
2022-11-23T10:35:38.462Z,100.00
2022-11-23T10:38:19.084Z,100.00
2022-11-23T10:41:08.838Z,100.00
2022-11-23T10:43:41.663Z,100.00
2022-11-23T10:46:23.708Z,100.00
2022-11-23T10:48:51.666Z,100.00
2022-11-23T10:51:31.795Z,100.00
2022-11-23T10:54:23.409Z,100.00
2022-11-23T10:56:51.861Z,100.00
2022-11-23T10:59:38.924Z,100.00
2022-11-23T11:02:05.395Z,100.00
2022-11-23T11:04:32.074Z,100.00
2022-11-23T11:07:31.557Z,100.00
2022-11-23T11:10:04.097Z,100.00
2022-11-23T11:12:34.580Z,100.00
2022-11-23T11:15:12.228Z,100.00
2022-11-23T11:17:41.039Z,100.00
2022-11-23T11:20:31.549Z,100.00
2022-11-23T11:23:17.573Z,100.00
2022-11-23T11:25:44.651Z,100.00
2022-11-23T11:28:32.860Z,100.00
2022-11-23T11:31:44.461Z,100.00
2022-11-23T11:34:23.793Z,100.00
2022-11-23T11:37:02.317Z,100.00
2022-11-23T11:39:38.116Z,100.00
2022-11-23T11:42:08.991Z,100.00
2022-11-23T11:44:39.831Z,100.00
2022-11-23T11:47:24.677Z,100.00
2022-11-23T11:49:55.100Z,100.00
2022-11-23T11:52:37.333Z,100.00
2022-11-23T11:55:22.610Z,100.00
2022-11-23T11:57:55.035Z,100.00
2022-11-23T12:00:21.811Z,100.00
2022-11-23T12:03:19.423Z,100.00
2022-11-23T12:05:52.269Z,98.55
2022-11-23T12:08:32.134Z,98.03
2022-11-23T12:11:02.136Z,97.58
2022-11-23T12:13:38.697Z,98.61
2022-11-23T12:16:05.162Z,98.78
2022-11-23T12:18:34.432Z,99.16
2022-11-23T12:21:19.334Z,99.40
2022-11-23T12:24:01.782Z,100.00
2022-11-23T12:26:43.284Z,100.00
2022-11-23T12:29:16.562Z,100.00
2022-11-23T12:31:49.111Z,100.00
2022-11-23T12:34:44.509Z,99.96
2022-11-23T12:37:11.500Z,99.40
2022-11-23T12:39:57.772Z,99.59
2022-11-23T12:42:34.798Z,99.78
2022-11-23T12:45:17.475Z,100.00
2022-11-23T12:48:08.290Z,99.74
2022-11-23T12:50:37.773Z,99.79
2022-11-23T12:53:43.299Z,99.25
2022-11-23T12:56:15.651Z,97.48
2022-11-23T12:58:44.546Z,97.56
2022-11-23T13:01:32.488Z,97.70
2022-11-23T13:04:32.811Z,97.95
2022-11-23T13:07:30.308Z,97.70
2022-11-23T13:10:48.049Z,97.96
2022-11-23T13:13:22.630Z,98.70
2022-11-23T13:16:19.936Z,98.84
2022-11-23T13:19:14.826Z,99.62
2022-11-23T13:21:44.655Z,99.70
2022-11-23T13:24:33.686Z,99.67
2022-11-23T13:27:15.681Z,100.00
2022-11-23T13:29:51.295Z,100.00
2022-11-23T13:32:39.416Z,100.00
2022-11-23T13:35:21.215Z,100.00
2022-11-23T13:37:56.917Z,100.00
2022-11-23T13:40:26.522Z,100.00
2022-11-23T13:42:57.656Z,100.00
2022-11-23T13:45:28.394Z,100.00
2022-11-23T13:48:34.353Z,100.00
2022-11-23T13:51:01.467Z,100.00
2022-11-23T13:53:39.690Z,100.00
2022-11-23T13:56:44.881Z,100.00
2022-11-23T13:59:23.680Z,100.00
2022-11-23T14:02:22.263Z,100.00
2022-11-23T14:04:49.462Z,99.99
2022-11-23T14:07:18.797Z,100.00
2022-11-23T14:09:51.541Z,100.00
2022-11-23T14:12:46.682Z,100.00
2022-11-23T14:15:25.497Z,100.00
2022-11-23T14:18:13.769Z,100.00
2022-11-23T14:20:52.315Z,100.00
2022-11-23T14:23:46.521Z,100.00
2022-11-23T14:26:34.183Z,100.00
2022-11-23T14:29:06.373Z,100.00
2022-11-23T14:31:42.569Z,100.00
2022-11-23T14:34:25.904Z,100.00
2022-11-23T14:37:23.475Z,100.00
2022-11-23T14:39:59.769Z,100.00
2022-11-23T14:42:29.393Z,100.00
2022-11-23T14:45:01.689Z,100.00
2022-11-23T14:47:30.370Z,100.00
2022-11-23T14:49:57.417Z,100.00
2022-11-23T14:52:28.744Z,100.00
2022-11-23T14:54:57.898Z,100.00
2022-11-23T14:57:36.224Z,100.00
2022-11-23T15:00:07.169Z,100.00
2022-11-23T15:02:41.266Z,100.00
2022-11-23T15:05:16.751Z,100.00
2022-11-23T15:07:52.487Z,100.00
2022-11-23T15:10:24.854Z,100.00
2022-11-23T15:12:51.426Z,100.00
2022-11-23T15:15:26.283Z,100.00
2022-11-23T15:18:01.431Z,100.00
2022-11-23T15:20:40.868Z,100.00
2022-11-23T15:23:16.559Z,100.00
2022-11-23T15:25:53.709Z,100.00
2022-11-23T15:28:28.781Z,100.00
2022-11-23T15:30:58.610Z,100.00
2022-11-23T15:33:26.215Z,100.00
2022-11-23T15:35:54.691Z,100.00
2022-11-23T15:38:23.906Z,100.00
2022-11-23T15:40:51.476Z,100.00
2022-11-23T15:43:19.921Z,100.00
2022-11-23T15:45:46.559Z,100.00
2022-11-23T15:48:14.903Z,100.00
2022-11-23T15:50:59.556Z,100.00
2022-11-23T15:53:32.481Z,100.00
2022-11-23T15:56:05.548Z,100.00
2022-11-23T15:58:33.979Z,100.00
2022-11-23T16:01:12.509Z,100.00
2022-11-23T16:04:01.084Z,100.00
2022-11-23T16:06:40.869Z,100.00
2022-11-23T16:12:25.758Z,100.00
2022-11-23T16:14:54.427Z,100.00
2022-11-23T16:17:29.458Z,100.00
2022-11-23T16:20:03.949Z,100.00
2022-11-23T16:22:37.875Z,100.00
2022-11-23T16:25:18.055Z,100.00
2022-11-23T16:27:44.695Z,100.00
2022-11-23T16:30:25.631Z,100.00
2022-11-23T16:32:52.494Z,100.00
2022-11-23T16:35:20.768Z,100.00
2022-11-23T16:37:47.410Z,100.00
2022-11-23T16:40:14.659Z,100.00
2022-11-23T16:42:43.301Z,100.00
2022-11-23T16:45:10.746Z,100.00
2022-11-23T16:47:51.874Z,100.00
2022-11-23T16:50:18.677Z,100.00
2022-11-23T16:52:45.242Z,100.00
2022-11-23T16:55:11.740Z,100.00
2022-11-23T16:57:38.911Z,100.00
2022-11-23T17:00:36.098Z,100.00
2022-11-23T17:03:02.751Z,100.00
2022-11-23T17:05:29.267Z,100.00
2022-11-23T17:07:55.877Z,100.00
2022-11-23T17:10:22.574Z,100.00
2022-11-23T17:12:55.107Z,100.00
2022-11-23T17:15:23.336Z,100.00
2022-11-23T17:17:50.250Z,100.00
2022-11-23T17:20:18.005Z,100.00
2022-11-23T17:22:45.044Z,100.00
2022-11-23T17:25:15.007Z,100.00
2022-11-23T17:27:42.339Z,100.00
2022-11-23T17:30:19.257Z,100.00
2022-11-23T17:32:47.848Z,100.00
2022-11-23T17:35:15.021Z,100.00
2022-11-23T17:37:42.158Z,100.00
2022-11-23T17:40:19.985Z,100.00
2022-11-23T17:42:47.451Z,100.00
2022-11-23T17:45:14.625Z,100.00
2022-11-23T17:47:44.136Z,100.00
2022-11-23T17:50:17.561Z,100.00
2022-11-23T17:52:45.549Z,100.00
2022-11-23T17:55:13.071Z,100.00
2022-11-23T17:57:40.450Z,100.00
2022-11-23T18:00:23.117Z,100.00
2022-11-23T18:02:50.009Z,100.00
2022-11-23T18:05:21.530Z,100.00
2022-11-23T18:07:49.351Z,100.00
2022-11-23T18:10:16.354Z,100.00
2022-11-23T18:12:44.689Z,100.00
2022-11-23T18:15:12.122Z,100.00
2022-11-23T18:17:38.776Z,100.00
2022-11-23T18:20:08.255Z,100.00
2022-11-23T18:22:35.144Z,100.00
2022-11-23T18:25:01.949Z,100.00
2022-11-23T18:27:29.816Z,100.00
2022-11-23T18:29:56.557Z,100.00
2022-11-23T18:32:23.118Z,100.00
2022-11-23T18:34:49.676Z,100.00
2022-11-23T18:37:16.398Z,100.00
2022-11-23T18:39:42.932Z,100.00
2022-11-23T18:42:10.016Z,100.00
2022-11-23T18:44:36.448Z,100.00
2022-11-23T18:47:03.039Z,100.00
2022-11-23T18:49:29.579Z,100.00
2022-11-23T18:51:56.123Z,100.00
2022-11-23T18:54:22.611Z,100.00
2022-11-23T18:56:49.152Z,100.00
2022-11-23T18:59:50.122Z,100.00
2022-11-23T19:02:02.298Z,100.00
2022-11-23T19:04:32.499Z,100.00
2022-11-23T19:06:59.038Z,100.00
2022-11-23T19:09:25.492Z,100.00
2022-11-23T19:11:52.003Z,100.00
2022-11-23T19:14:18.537Z,100.00
2022-11-23T19:16:45.079Z,100.00
2022-11-23T19:19:11.700Z,100.00
2022-11-23T19:21:39.186Z,100.00
2022-11-23T19:24:06.675Z,100.00
2022-11-23T19:26:33.252Z,100.00
2022-11-23T19:29:00.149Z,100.00
2022-11-23T19:31:32.217Z,100.00
2022-11-23T19:34:01.284Z,100.00
2022-11-23T19:36:30.119Z,100.00
2022-11-23T19:38:58.206Z,100.00
2022-11-23T19:41:29.793Z,100.00
2022-11-23T19:43:58.919Z,100.00
2022-11-23T19:46:26.306Z,100.00
2022-11-23T19:48:54.872Z,100.00
2022-11-23T19:51:21.480Z,100.00
2022-11-23T19:53:49.350Z,100.00
2022-11-23T19:56:21.727Z,100.00
2022-11-23T19:58:54.768Z,100.00
2022-11-23T20:01:23.496Z,100.00
2022-11-23T20:03:52.147Z,100.00
2022-11-23T20:06:27.259Z,100.00
2022-11-23T20:08:59.120Z,100.00
2022-11-23T20:11:27.425Z,100.00
2022-11-23T20:13:54.850Z,100.00
2022-11-23T20:16:22.423Z,100.00
2022-11-23T20:18:54.647Z,100.00
2022-11-23T20:21:21.129Z,100.00
2022-11-23T20:23:50.307Z,100.00
2022-11-23T20:26:20.238Z,100.00
2022-11-23T20:28:51.337Z,100.00
2022-11-23T20:31:20.860Z,100.00
2022-11-23T20:33:50.600Z,100.00
2022-11-23T20:36:25.217Z,100.00
2022-11-23T20:38:53.157Z,100.00
2022-11-23T20:41:28.075Z,100.00
2022-11-23T20:43:57.788Z,100.00
2022-11-23T20:46:46.109Z,100.00
2022-11-23T20:49:12.201Z,100.00
2022-11-23T20:51:38.879Z,100.00
2022-11-23T20:54:05.472Z,100.00
2022-11-23T20:56:32.410Z,100.00
2022-11-23T20:59:04.228Z,100.00
2022-11-23T21:01:30.872Z,100.00
2022-11-23T21:03:59.300Z,100.00
2022-11-23T21:06:26.834Z,100.00
2022-11-23T21:08:53.786Z,100.00
2022-11-23T21:11:46.175Z,100.00
2022-11-23T21:14:27.147Z,100.00
2022-11-23T21:16:58.961Z,100.00
2022-11-23T21:19:31.021Z,100.00
2022-11-23T21:21:59.248Z,100.00
2022-11-23T21:24:25.968Z,100.00
2022-11-23T21:26:52.661Z,100.00
2022-11-23T21:29:19.484Z,100.00
2022-11-23T21:31:48.408Z,100.00
2022-11-23T21:34:19.092Z,100.00
2022-11-23T21:36:46.044Z,100.00
2022-11-23T21:39:13.741Z,100.00
2022-11-23T21:41:40.334Z,100.00
2022-11-23T21:44:08.445Z,100.00
2022-11-23T21:46:37.206Z,100.00
2022-11-23T21:49:04.713Z,100.00
2022-11-23T21:51:31.363Z,100.00
2022-11-23T21:54:00.522Z,100.00
2022-11-23T21:56:28.321Z,100.00
2022-11-23T21:58:55.614Z,100.00
2022-11-23T22:01:24.925Z,100.00
2022-11-23T22:03:54.293Z,100.00
2022-11-23T22:06:21.333Z,100.00
2022-11-23T22:08:48.842Z,100.00
2022-11-23T22:11:23.588Z,100.00
2022-11-23T22:14:13.606Z,100.00
2022-11-23T22:16:43.902Z,100.00
2022-11-23T22:19:12.625Z,100.00
2022-11-23T22:21:40.857Z,100.00
2022-11-23T22:24:12.621Z,100.00
2022-11-23T22:26:39.223Z,100.00
2022-11-23T22:29:06.855Z,100.00
2022-11-23T22:31:35.120Z,100.00
2022-11-23T22:34:02.996Z,100.00
2022-11-23T22:36:30.176Z,100.00
2022-11-23T22:39:05.427Z,100.00
2022-11-23T22:41:37.538Z,100.00
2022-11-23T22:44:09.271Z,100.00
2022-11-23T22:46:37.656Z,100.00
2022-11-23T22:49:04.668Z,100.00
2022-11-23T22:51:31.366Z,100.00
2022-11-23T22:53:59.890Z,100.00
2022-11-23T22:56:27.871Z,100.00
2022-11-23T22:58:54.743Z,100.00
2022-11-23T23:01:23.418Z,100.00
2022-11-23T23:03:55.732Z,100.00
2022-11-23T23:06:27.577Z,100.00
2022-11-23T23:08:56.467Z,100.00
2022-11-23T23:11:24.194Z,100.00
2022-11-23T23:13:51.903Z,100.00
2022-11-23T23:16:18.981Z,100.00
2022-11-23T23:18:45.690Z,100.00
2022-11-23T23:21:15.051Z,100.00
2022-11-23T23:23:44.063Z,100.00
2022-11-23T23:26:12.025Z,100.00
2022-11-23T23:28:39.282Z,100.00
2022-11-23T23:31:17.231Z,100.00
2022-11-23T23:33:45.575Z,100.00
2022-11-23T23:36:17.847Z,100.00
2022-11-23T23:38:44.524Z,100.00
2022-11-23T23:41:12.451Z,100.00
2022-11-23T23:43:39.810Z,100.00
2022-11-23T23:46:09.679Z,100.00
2022-11-23T23:48:38.806Z,100.00
2022-11-23T23:51:17.675Z,100.00
2022-11-23T23:53:45.121Z,100.00
2022-11-23T23:56:13.555Z,100.00
2022-11-23T23:58:40.147Z,100.00
